sensor_id;sensor_type;location;lat;lon;timestamp;P1;durP1;ratioP1;P2;durP2;ratioP2
35909;SDS011;22004;49.120;-0.200;2023-08-17T00:00:07;3.53;;;1.80;;
35909;SDS011;22004;49.120;-0.200;2023-08-17T00:02:42;4.18;;;1.90;;
35909;SDS011;22004;49.120;-0.200;2023-08-17T00:05:07;2.75;;;1.92;;
35909;SDS011;22004;49.120;-0.200;2023-08-17T00:07:33;3.08;;;1.70;;
35909;SDS011;22004;49.120;-0.200;2023-08-17T00:09:59;6.43;;;1.80;;
35909;SDS011;22004;49.120;-0.200;2023-08-17T00:12:24;2.03;;;1.45;;
35909;SDS011;22004;49.120;-0.200;2023-08-17T00:14:50;3.88;;;1.90;;
35909;SDS011;22004;49.120;-0.200;2023-08-17T00:17:16;5.50;;;1.92;;
35909;SDS011;22004;49.120;-0.200;2023-08-17T00:19:41;3.92;;;1.65;;
35909;SDS011;22004;49.120;-0.200;2023-08-17T00:22:07;4.22;;;1.80;;
35909;SDS011;22004;49.120;-0.200;2023-08-17T00:24:32;4.05;;;1.77;;
35909;SDS011;22004;49.120;-0.200;2023-08-17T00:26:57;2.63;;;1.67;;
35909;SDS011;22004;49.120;-0.200;2023-08-17T00:29:22;6.35;;;2.10;;
35909;SDS011;22004;49.120;-0.200;2023-08-17T00:31:48;4.78;;;2.20;;
35909;SDS011;22004;49.120;-0.200;2023-08-17T00:34:13;7.45;;;1.90;;
35909;SDS011;22004;49.120;-0.200;2023-08-17T00:36:39;10.15;;;1.90;;
35909;SDS011;22004;49.120;-0.200;2023-08-17T00:39:04;4.65;;;1.88;;
35909;SDS011;22004;49.120;-0.200;2023-08-17T00:41:29;4.10;;;1.95;;
35909;SDS011;22004;49.120;-0.200;2023-08-17T00:43:55;3.42;;;1.85;;
35909;SDS011;22004;49.120;-0.200;2023-08-17T00:46:21;2.65;;;1.73;;
35909;SDS011;22004;49.120;-0.200;2023-08-17T00:48:48;3.88;;;1.60;;
35909;SDS011;22004;49.120;-0.200;2023-08-17T00:51:13;2.55;;;1.92;;
35909;SDS011;22004;49.120;-0.200;2023-08-17T00:53:39;4.32;;;2.10;;
35909;SDS011;22004;49.120;-0.200;2023-08-17T00:56:05;3.55;;;1.90;;
35909;SDS011;22004;49.120;-0.200;2023-08-17T00:58:31;4.82;;;2.47;;
35909;SDS011;22004;49.120;-0.200;2023-08-17T01:00:57;3.10;;;1.80;;
35909;SDS011;22004;49.120;-0.200;2023-08-17T01:03:23;3.78;;;1.90;;
35909;SDS011;22004;49.120;-0.200;2023-08-17T01:05:51;3.30;;;1.80;;
35909;SDS011;22004;49.120;-0.200;2023-08-17T01:08:17;3.60;;;1.80;;
35909;SDS011;22004;49.120;-0.200;2023-08-17T01:15:58;3.50;;;1.90;;
35909;SDS011;22004;49.120;-0.200;2023-08-17T01:18:31;5.35;;;1.88;;
35909;SDS011;22004;49.120;-0.200;2023-08-17T01:20:59;4.28;;;1.92;;
35909;SDS011;22004;49.120;-0.200;2023-08-17T01:23:26;6.18;;;1.95;;
35909;SDS011;22004;49.120;-0.200;2023-08-17T01:25:51;4.30;;;1.80;;
35909;SDS011;22004;49.120;-0.200;2023-08-17T01:28:18;4.25;;;2.05;;
35909;SDS011;22004;49.120;-0.200;2023-08-17T01:30:45;3.20;;;1.67;;
35909;SDS011;22004;49.120;-0.200;2023-08-17T01:33:20;3.13;;;1.80;;
35909;SDS011;22004;49.120;-0.200;2023-08-17T01:38:24;3.00;;;1.70;;
35909;SDS011;22004;49.120;-0.200;2023-08-17T01:40:51;2.63;;;1.65;;
35909;SDS011;22004;49.120;-0.200;2023-08-17T01:43:18;5.50;;;1.70;;
35909;SDS011;22004;49.120;-0.200;2023-08-17T01:45:45;3.08;;;1.92;;
35909;SDS011;22004;49.120;-0.200;2023-08-17T01:48:10;3.55;;;2.30;;
35909;SDS011;22004;49.120;-0.200;2023-08-17T01:50:36;4.93;;;1.48;;
35909;SDS011;22004;49.120;-0.200;2023-08-17T01:53:01;7.47;;;2.03;;
35909;SDS011;22004;49.120;-0.200;2023-08-17T01:55:28;6.75;;;1.70;;
35909;SDS011;22004;49.120;-0.200;2023-08-17T01:57:53;4.85;;;1.83;;
35909;SDS011;22004;49.120;-0.200;2023-08-17T02:00:18;2.42;;;1.80;;
35909;SDS011;22004;49.120;-0.200;2023-08-17T02:02:44;2.58;;;1.70;;
35909;SDS011;22004;49.120;-0.200;2023-08-17T02:05:10;1.92;;;1.65;;
35909;SDS011;22004;49.120;-0.200;2023-08-17T02:07:35;4.40;;;2.03;;
35909;SDS011;22004;49.120;-0.200;2023-08-17T02:10:00;5.18;;;2.13;;
35909;SDS011;22004;49.120;-0.200;2023-08-17T02:12:26;2.83;;;1.55;;
35909;SDS011;22004;49.120;-0.200;2023-08-17T02:14:51;4.68;;;1.73;;
35909;SDS011;22004;49.120;-0.200;2023-08-17T02:17:17;2.58;;;1.60;;
35909;SDS011;22004;49.120;-0.200;2023-08-17T02:19:43;3.63;;;1.77;;
35909;SDS011;22004;49.120;-0.200;2023-08-17T02:22:09;5.88;;;2.10;;
35909;SDS011;22004;49.120;-0.200;2023-08-17T02:24:34;5.35;;;1.73;;
35909;SDS011;22004;49.120;-0.200;2023-08-17T02:27:00;6.32;;;1.88;;
35909;SDS011;22004;49.120;-0.200;2023-08-17T02:29:25;4.65;;;1.90;;
35909;SDS011;22004;49.120;-0.200;2023-08-17T02:31:50;3.10;;;1.88;;
35909;SDS011;22004;49.120;-0.200;2023-08-17T02:34:16;2.42;;;1.85;;
35909;SDS011;22004;49.120;-0.200;2023-08-17T02:36:41;1.85;;;1.65;;
35909;SDS011;22004;49.120;-0.200;2023-08-17T02:39:06;6.03;;;1.77;;
35909;SDS011;22004;49.120;-0.200;2023-08-17T02:41:32;3.08;;;1.95;;
35909;SDS011;22004;49.120;-0.200;2023-08-17T02:43:57;5.85;;;1.70;;
35909;SDS011;22004;49.120;-0.200;2023-08-17T02:46:23;4.78;;;1.80;;
35909;SDS011;22004;49.120;-0.200;2023-08-17T02:48:48;7.13;;;2.00;;
35909;SDS011;22004;49.120;-0.200;2023-08-17T02:51:14;3.92;;;1.88;;
35909;SDS011;22004;49.120;-0.200;2023-08-17T02:53:40;3.80;;;1.92;;
35909;SDS011;22004;49.120;-0.200;2023-08-17T02:56:06;3.13;;;1.75;;
35909;SDS011;22004;49.120;-0.200;2023-08-17T02:58:31;2.33;;;1.88;;
35909;SDS011;22004;49.120;-0.200;2023-08-17T03:00:57;2.97;;;2.00;;
35909;SDS011;22004;49.120;-0.200;2023-08-17T03:03:22;6.50;;;1.88;;
35909;SDS011;22004;49.120;-0.200;2023-08-17T03:05:47;4.97;;;2.10;;
35909;SDS011;22004;49.120;-0.200;2023-08-17T03:08:13;3.95;;;2.05;;
35909;SDS011;22004;49.120;-0.200;2023-08-17T03:10:38;3.63;;;1.70;;
35909;SDS011;22004;49.120;-0.200;2023-08-17T03:13:03;2.13;;;1.70;;
35909;SDS011;22004;49.120;-0.200;2023-08-17T03:15:29;4.82;;;2.17;;
35909;SDS011;22004;49.120;-0.200;2023-08-17T03:17:54;2.95;;;1.80;;
35909;SDS011;22004;49.120;-0.200;2023-08-17T03:20:19;4.18;;;1.77;;
35909;SDS011;22004;49.120;-0.200;2023-08-17T03:22:45;3.22;;;1.77;;
35909;SDS011;22004;49.120;-0.200;2023-08-17T03:25:10;3.50;;;1.88;;
35909;SDS011;22004;49.120;-0.200;2023-08-17T03:27:36;2.70;;;1.60;;
35909;SDS011;22004;49.120;-0.200;2023-08-17T03:30:02;6.00;;;1.75;;
35909;SDS011;22004;49.120;-0.200;2023-08-17T03:32:28;3.63;;;1.80;;
35909;SDS011;22004;49.120;-0.200;2023-08-17T03:34:53;3.75;;;1.95;;
35909;SDS011;22004;49.120;-0.200;2023-08-17T03:37:19;2.90;;;1.77;;
35909;SDS011;22004;49.120;-0.200;2023-08-17T03:39:44;2.13;;;1.60;;
35909;SDS011;22004;49.120;-0.200;2023-08-17T03:42:09;1.92;;;1.70;;
35909;SDS011;22004;49.120;-0.200;2023-08-17T03:44:35;4.28;;;1.95;;
35909;SDS011;22004;49.120;-0.200;2023-08-17T03:47:00;2.97;;;1.55;;
35909;SDS011;22004;49.120;-0.200;2023-08-17T03:49:25;3.63;;;2.08;;
35909;SDS011;22004;49.120;-0.200;2023-08-17T03:51:51;3.15;;;1.95;;
35909;SDS011;22004;49.120;-0.200;2023-08-17T03:54:16;6.93;;;2.03;;
35909;SDS011;22004;49.120;-0.200;2023-08-17T03:56:42;2.55;;;1.77;;
35909;SDS011;22004;49.120;-0.200;2023-08-17T03:59:07;1.75;;;1.52;;
35909;SDS011;22004;49.120;-0.200;2023-08-17T04:01:33;3.58;;;2.10;;
35909;SDS011;22004;49.120;-0.200;2023-08-17T04:03:58;5.63;;;2.30;;
35909;SDS011;22004;49.120;-0.200;2023-08-17T04:06:23;3.47;;;1.88;;
35909;SDS011;22004;49.120;-0.200;2023-08-17T04:08:49;2.85;;;1.80;;
35909;SDS011;22004;49.120;-0.200;2023-08-17T04:11:14;3.90;;;1.80;;
35909;SDS011;22004;49.120;-0.200;2023-08-17T04:13:39;2.33;;;1.80;;
35909;SDS011;22004;49.120;-0.200;2023-08-17T04:16:05;2.90;;;1.58;;
35909;SDS011;22004;49.120;-0.200;2023-08-17T04:18:30;2.90;;;1.80;;
35909;SDS011;22004;49.120;-0.200;2023-08-17T04:20:55;2.30;;;1.58;;
35909;SDS011;22004;49.120;-0.200;2023-08-17T04:23:21;4.80;;;1.77;;
35909;SDS011;22004;49.120;-0.200;2023-08-17T04:25:46;3.13;;;1.73;;
35909;SDS011;22004;49.120;-0.200;2023-08-17T04:28:12;4.13;;;1.80;;
35909;SDS011;22004;49.120;-0.200;2023-08-17T04:30:38;2.53;;;1.70;;
35909;SDS011;22004;49.120;-0.200;2023-08-17T04:33:04;4.55;;;1.83;;
35909;SDS011;22004;49.120;-0.200;2023-08-17T04:35:29;5.57;;;2.30;;
35909;SDS011;22004;49.120;-0.200;2023-08-17T04:37:55;6.68;;;2.00;;
35909;SDS011;22004;49.120;-0.200;2023-08-17T04:40:20;2.13;;;1.70;;
35909;SDS011;22004;49.120;-0.200;2023-08-17T04:42:45;2.88;;;1.92;;
35909;SDS011;22004;49.120;-0.200;2023-08-17T04:45:10;2.78;;;1.83;;
35909;SDS011;22004;49.120;-0.200;2023-08-17T04:47:36;9.00;;;2.80;;
35909;SDS011;22004;49.120;-0.200;2023-08-17T04:50:01;4.78;;;2.75;;
35909;SDS011;22004;49.120;-0.200;2023-08-17T04:52:27;4.53;;;2.30;;
35909;SDS011;22004;49.120;-0.200;2023-08-17T04:54:52;6.68;;;2.47;;
35909;SDS011;22004;49.120;-0.200;2023-08-17T04:57:18;6.53;;;2.50;;
35909;SDS011;22004;49.120;-0.200;2023-08-17T04:59:44;3.45;;;1.83;;
35909;SDS011;22004;49.120;-0.200;2023-08-17T05:02:09;4.03;;;2.42;;
35909;SDS011;22004;49.120;-0.200;2023-08-17T05:04:35;4.70;;;2.35;;
35909;SDS011;22004;49.120;-0.200;2023-08-17T05:07:00;6.45;;;2.20;;
35909;SDS011;22004;49.120;-0.200;2023-08-17T05:09:26;4.90;;;2.33;;
35909;SDS011;22004;49.120;-0.200;2023-08-17T05:11:52;2.30;;;1.60;;
35909;SDS011;22004;49.120;-0.200;2023-08-17T05:14:17;4.40;;;2.20;;
35909;SDS011;22004;49.120;-0.200;2023-08-17T05:16:43;3.20;;;1.73;;
35909;SDS011;22004;49.120;-0.200;2023-08-17T05:19:08;4.75;;;2.10;;
35909;SDS011;22004;49.120;-0.200;2023-08-17T05:21:34;2.88;;;1.83;;
35909;SDS011;22004;49.120;-0.200;2023-08-17T05:24:00;4.78;;;2.15;;
35909;SDS011;22004;49.120;-0.200;2023-08-17T05:26:25;5.43;;;2.25;;
35909;SDS011;22004;49.120;-0.200;2023-08-17T05:28:50;4.50;;;2.28;;
35909;SDS011;22004;49.120;-0.200;2023-08-17T05:31:15;5.38;;;1.95;;
35909;SDS011;22004;49.120;-0.200;2023-08-17T05:33:41;5.55;;;2.38;;
35909;SDS011;22004;49.120;-0.200;2023-08-17T05:36:07;7.13;;;2.10;;
35909;SDS011;22004;49.120;-0.200;2023-08-17T05:38:32;4.93;;;1.95;;
35909;SDS011;22004;49.120;-0.200;2023-08-17T05:40:58;6.40;;;1.80;;
35909;SDS011;22004;49.120;-0.200;2023-08-17T05:43:24;4.78;;;2.40;;
35909;SDS011;22004;49.120;-0.200;2023-08-17T05:45:51;3.20;;;2.25;;
35909;SDS011;22004;49.120;-0.200;2023-08-17T05:48:19;3.92;;;1.80;;
35909;SDS011;22004;49.120;-0.200;2023-08-17T05:50:48;9.82;;;2.20;;
35909;SDS011;22004;49.120;-0.200;2023-08-17T05:53:13;11.82;;;5.75;;
35909;SDS011;22004;49.120;-0.200;2023-08-17T05:55:39;9.93;;;5.63;;
35909;SDS011;22004;49.120;-0.200;2023-08-17T05:58:04;10.15;;;6.13;;
35909;SDS011;22004;49.120;-0.200;2023-08-17T06:00:29;10.10;;;5.93;;
35909;SDS011;22004;49.120;-0.200;2023-08-17T06:02:55;16.77;;;6.20;;
35909;SDS011;22004;49.120;-0.200;2023-08-17T06:05:26;7.82;;;5.22;;
35909;SDS011;22004;49.120;-0.200;2023-08-17T06:07:52;9.80;;;5.75;;
35909;SDS011;22004;49.120;-0.200;2023-08-17T06:10:17;16.05;;;7.35;;
35909;SDS011;22004;49.120;-0.200;2023-08-17T06:12:43;14.70;;;8.18;;
35909;SDS011;22004;49.120;-0.200;2023-08-17T06:15:08;13.90;;;8.75;;
35909;SDS011;22004;49.120;-0.200;2023-08-17T06:17:34;17.77;;;7.57;;
35909;SDS011;22004;49.120;-0.200;2023-08-17T06:19:59;16.90;;;8.95;;
35909;SDS011;22004;49.120;-0.200;2023-08-17T06:22:25;16.85;;;9.80;;
35909;SDS011;22004;49.120;-0.200;2023-08-17T06:24:50;16.67;;;9.50;;
35909;SDS011;22004;49.120;-0.200;2023-08-17T06:27:15;26.00;;;11.40;;
35909;SDS011;22004;49.120;-0.200;2023-08-17T06:29:41;18.70;;;10.32;;
35909;SDS011;22004;49.120;-0.200;2023-08-17T06:32:06;17.42;;;10.82;;
35909;SDS011;22004;49.120;-0.200;2023-08-17T06:34:33;16.80;;;9.60;;
35909;SDS011;22004;49.120;-0.200;2023-08-17T06:36:59;18.83;;;11.60;;
35909;SDS011;22004;49.120;-0.200;2023-08-17T06:39:27;17.42;;;10.82;;
35909;SDS011;22004;49.120;-0.200;2023-08-17T06:41:52;17.20;;;9.15;;
35909;SDS011;22004;49.120;-0.200;2023-08-17T06:44:18;15.00;;;10.75;;
35909;SDS011;22004;49.120;-0.200;2023-08-17T06:46:43;13.65;;;10.00;;
35909;SDS011;22004;49.120;-0.200;2023-08-17T06:49:10;21.05;;;13.38;;
35909;SDS011;22004;49.120;-0.200;2023-08-17T06:51:36;17.38;;;12.13;;
35909;SDS011;22004;49.120;-0.200;2023-08-17T06:54:01;22.83;;;14.23;;
35909;SDS011;22004;49.120;-0.200;2023-08-17T06:56:27;22.15;;;13.63;;
35909;SDS011;22004;49.120;-0.200;2023-08-17T06:58:52;21.38;;;13.02;;
35909;SDS011;22004;49.120;-0.200;2023-08-17T07:01:17;27.25;;;15.52;;
35909;SDS011;22004;49.120;-0.200;2023-08-17T07:03:43;22.23;;;14.57;;
35909;SDS011;22004;49.120;-0.200;2023-08-17T07:06:08;21.65;;;13.93;;
35909;SDS011;22004;49.120;-0.200;2023-08-17T07:08:35;21.30;;;13.93;;
35909;SDS011;22004;49.120;-0.200;2023-08-17T07:11:00;24.67;;;13.88;;
35909;SDS011;22004;49.120;-0.200;2023-08-17T07:13:25;29.45;;;15.90;;
35909;SDS011;22004;49.120;-0.200;2023-08-17T07:15:51;22.55;;;13.52;;
35909;SDS011;22004;49.120;-0.200;2023-08-17T07:18:16;26.13;;;15.77;;
35909;SDS011;22004;49.120;-0.200;2023-08-17T07:20:42;21.88;;;14.02;;
35909;SDS011;22004;49.120;-0.200;2023-08-17T07:23:07;23.25;;;13.50;;
35909;SDS011;22004;49.120;-0.200;2023-08-17T07:25:32;20.92;;;13.43;;
35909;SDS011;22004;49.120;-0.200;2023-08-17T07:27:58;22.00;;;13.80;;
35909;SDS011;22004;49.120;-0.200;2023-08-17T07:30:23;22.08;;;13.90;;
35909;SDS011;22004;49.120;-0.200;2023-08-17T07:32:49;19.55;;;12.93;;
35909;SDS011;22004;49.120;-0.200;2023-08-17T07:35:14;22.50;;;13.20;;
35909;SDS011;22004;49.120;-0.200;2023-08-17T07:37:40;16.17;;;11.52;;
35909;SDS011;22004;49.120;-0.200;2023-08-17T07:40:05;22.80;;;11.98;;
35909;SDS011;22004;49.120;-0.200;2023-08-17T07:42:32;18.33;;;12.30;;
35909;SDS011;22004;49.120;-0.200;2023-08-17T07:44:58;20.25;;;12.18;;
35909;SDS011;22004;49.120;-0.200;2023-08-17T07:47:23;17.77;;;10.98;;
35909;SDS011;22004;49.120;-0.200;2023-08-17T07:49:48;14.85;;;10.30;;
35909;SDS011;22004;49.120;-0.200;2023-08-17T07:52:14;21.23;;;10.23;;
35909;SDS011;22004;49.120;-0.200;2023-08-17T07:54:39;16.55;;;10.80;;
35909;SDS011;22004;49.120;-0.200;2023-08-17T07:57:04;21.60;;;11.02;;
35909;SDS011;22004;49.120;-0.200;2023-08-17T07:59:30;18.75;;;11.15;;
35909;SDS011;22004;49.120;-0.200;2023-08-17T08:01:55;14.20;;;8.80;;
35909;SDS011;22004;49.120;-0.200;2023-08-17T08:04:20;19.00;;;9.48;;
35909;SDS011;22004;49.120;-0.200;2023-08-17T08:06:46;16.75;;;8.52;;
35909;SDS011;22004;49.120;-0.200;2023-08-17T08:09:11;16.67;;;8.70;;
35909;SDS011;22004;49.120;-0.200;2023-08-17T08:11:37;15.13;;;8.82;;
35909;SDS011;22004;49.120;-0.200;2023-08-17T08:14:03;17.10;;;8.65;;
35909;SDS011;22004;49.120;-0.200;2023-08-17T08:16:29;14.73;;;8.40;;
35909;SDS011;22004;49.120;-0.200;2023-08-17T08:18:57;10.05;;;7.35;;
35909;SDS011;22004;49.120;-0.200;2023-08-17T08:21:23;15.57;;;7.40;;
35909;SDS011;22004;49.120;-0.200;2023-08-17T08:23:48;11.98;;;7.20;;
35909;SDS011;22004;49.120;-0.200;2023-08-17T08:26:13;12.93;;;7.22;;
35909;SDS011;22004;49.120;-0.200;2023-08-17T08:28:39;18.35;;;6.78;;
35909;SDS011;22004;49.120;-0.200;2023-08-17T08:31:05;10.23;;;6.88;;
35909;SDS011;22004;49.120;-0.200;2023-08-17T08:33:30;9.27;;;6.30;;
35909;SDS011;22004;49.120;-0.200;2023-08-17T08:35:56;10.00;;;6.72;;
35909;SDS011;22004;49.120;-0.200;2023-08-17T08:38:21;11.55;;;7.00;;
35909;SDS011;22004;49.120;-0.200;2023-08-17T08:40:47;9.25;;;6.38;;
35909;SDS011;22004;49.120;-0.200;2023-08-17T08:43:13;11.05;;;6.82;;
35909;SDS011;22004;49.120;-0.200;2023-08-17T08:45:41;11.23;;;6.85;;
35909;SDS011;22004;49.120;-0.200;2023-08-17T08:48:13;16.05;;;6.22;;
35909;SDS011;22004;49.120;-0.200;2023-08-17T08:50:39;11.45;;;7.13;;
35909;SDS011;22004;49.120;-0.200;2023-08-17T08:53:07;15.48;;;6.95;;
35909;SDS011;22004;49.120;-0.200;2023-08-17T08:55:41;14.68;;;6.75;;
35909;SDS011;22004;49.120;-0.200;2023-08-17T08:58:12;9.10;;;6.38;;
35909;SDS011;22004;49.120;-0.200;2023-08-17T09:00:39;11.57;;;5.72;;
35909;SDS011;22004;49.120;-0.200;2023-08-17T09:03:05;8.60;;;6.28;;
35909;SDS011;22004;49.120;-0.200;2023-08-17T09:05:31;10.05;;;6.65;;
35909;SDS011;22004;49.120;-0.200;2023-08-17T09:07:59;12.25;;;6.53;;
35909;SDS011;22004;49.120;-0.200;2023-08-17T09:10:26;11.48;;;6.70;;
35909;SDS011;22004;49.120;-0.200;2023-08-17T09:12:53;9.23;;;6.22;;
35909;SDS011;22004;49.120;-0.200;2023-08-17T09:15:18;8.52;;;6.10;;
35909;SDS011;22004;49.120;-0.200;2023-08-17T09:17:44;9.32;;;6.10;;
35909;SDS011;22004;49.120;-0.200;2023-08-17T09:20:09;10.43;;;5.95;;
35909;SDS011;22004;49.120;-0.200;2023-08-17T09:22:39;9.68;;;5.90;;
35909;SDS011;22004;49.120;-0.200;2023-08-17T09:25:07;11.25;;;5.90;;
35909;SDS011;22004;49.120;-0.200;2023-08-17T09:27:36;10.50;;;5.55;;
35909;SDS011;22004;49.120;-0.200;2023-08-17T09:30:06;11.80;;;6.72;;
35909;SDS011;22004;49.120;-0.200;2023-08-17T09:32:34;10.48;;;6.57;;
35909;SDS011;22004;49.120;-0.200;2023-08-17T09:35:02;7.60;;;5.70;;
35909;SDS011;22004;49.120;-0.200;2023-08-17T09:37:30;11.07;;;6.35;;
35909;SDS011;22004;49.120;-0.200;2023-08-17T09:39:55;9.55;;;5.68;;
35909;SDS011;22004;49.120;-0.200;2023-08-17T09:42:21;9.07;;;5.18;;
35909;SDS011;22004;49.120;-0.200;2023-08-17T09:44:48;9.60;;;5.55;;
35909;SDS011;22004;49.120;-0.200;2023-08-17T09:47:14;7.50;;;4.82;;
35909;SDS011;22004;49.120;-0.200;2023-08-17T09:49:42;7.82;;;5.65;;
35909;SDS011;22004;49.120;-0.200;2023-08-17T09:52:12;8.65;;;4.53;;
35909;SDS011;22004;49.120;-0.200;2023-08-17T09:54:39;5.40;;;3.90;;
35909;SDS011;22004;49.120;-0.200;2023-08-17T09:57:05;6.07;;;3.90;;
35909;SDS011;22004;49.120;-0.200;2023-08-17T09:59:31;6.47;;;4.07;;
35909;SDS011;22004;49.120;-0.200;2023-08-17T10:01:56;7.88;;;4.20;;
35909;SDS011;22004;49.120;-0.200;2023-08-17T10:04:24;8.02;;;4.47;;
35909;SDS011;22004;49.120;-0.200;2023-08-17T10:07:00;7.32;;;4.25;;
35909;SDS011;22004;49.120;-0.200;2023-08-17T10:09:31;5.93;;;4.20;;
35909;SDS011;22004;49.120;-0.200;2023-08-17T10:12:06;6.78;;;3.60;;
35909;SDS011;22004;49.120;-0.200;2023-08-17T10:14:38;7.35;;;4.00;;
35909;SDS011;22004;49.120;-0.200;2023-08-17T10:17:11;6.43;;;3.50;;
35909;SDS011;22004;49.120;-0.200;2023-08-17T10:22:08;5.65;;;3.70;;
35909;SDS011;22004;49.120;-0.200;2023-08-17T10:24:40;7.45;;;4.00;;
35909;SDS011;22004;49.120;-0.200;2023-08-17T10:27:05;5.63;;;2.88;;
35909;SDS011;22004;49.120;-0.200;2023-08-17T10:29:32;8.32;;;2.35;;
35909;SDS011;22004;49.120;-0.200;2023-08-17T10:31:58;4.65;;;3.03;;
35909;SDS011;22004;49.120;-0.200;2023-08-17T10:34:26;6.72;;;3.40;;
35909;SDS011;22004;49.120;-0.200;2023-08-17T10:36:52;5.25;;;3.20;;
35909;SDS011;22004;49.120;-0.200;2023-08-17T10:39:23;4.95;;;3.38;;
35909;SDS011;22004;49.120;-0.200;2023-08-17T10:41:52;10.68;;;3.70;;
35909;SDS011;22004;49.120;-0.200;2023-08-17T10:44:40;7.03;;;3.40;;
35909;SDS011;22004;49.120;-0.200;2023-08-17T10:52:32;5.35;;;3.85;;
35909;SDS011;22004;49.120;-0.200;2023-08-17T10:55:06;9.73;;;4.47;;
35909;SDS011;22004;49.120;-0.200;2023-08-17T11:02:39;8.25;;;4.78;;
35909;SDS011;22004;49.120;-0.200;2023-08-17T11:05:05;6.40;;;4.40;;
35909;SDS011;22004;49.120;-0.200;2023-08-17T11:07:40;9.30;;;4.45;;
35909;SDS011;22004;49.120;-0.200;2023-08-17T11:12:44;7.05;;;3.80;;
35909;SDS011;22004;49.120;-0.200;2023-08-17T11:15:10;10.52;;;4.38;;
35909;SDS011;22004;49.120;-0.200;2023-08-17T11:17:35;5.60;;;4.18;;
35909;SDS011;22004;49.120;-0.200;2023-08-17T11:20:01;6.03;;;4.22;;
35909;SDS011;22004;49.120;-0.200;2023-08-17T11:22:27;8.07;;;3.97;;
35909;SDS011;22004;49.120;-0.200;2023-08-17T11:24:52;6.15;;;4.43;;
35909;SDS011;22004;49.120;-0.200;2023-08-17T11:27:18;6.63;;;4.70;;
35909;SDS011;22004;49.120;-0.200;2023-08-17T11:29:44;6.97;;;4.65;;
35909;SDS011;22004;49.120;-0.200;2023-08-17T11:32:10;9.82;;;4.85;;
35909;SDS011;22004;49.120;-0.200;2023-08-17T11:34:36;10.93;;;5.13;;
35909;SDS011;22004;49.120;-0.200;2023-08-17T11:37:01;6.15;;;5.38;;
35909;SDS011;22004;49.120;-0.200;2023-08-17T11:39:27;10.38;;;5.18;;
35909;SDS011;22004;49.120;-0.200;2023-08-17T11:41:52;9.02;;;5.72;;
35909;SDS011;22004;49.120;-0.200;2023-08-17T11:44:18;6.60;;;5.03;;
35909;SDS011;22004;49.120;-0.200;2023-08-17T11:46:46;6.93;;;4.78;;
35909;SDS011;22004;49.120;-0.200;2023-08-17T11:49:12;8.43;;;4.70;;
35909;SDS011;22004;49.120;-0.200;2023-08-17T11:51:38;7.57;;;4.90;;
35909;SDS011;22004;49.120;-0.200;2023-08-17T11:54:04;7.30;;;4.25;;
35909;SDS011;22004;49.120;-0.200;2023-08-17T11:56:33;8.02;;;5.03;;
35909;SDS011;22004;49.120;-0.200;2023-08-17T11:58:58;6.30;;;4.57;;
35909;SDS011;22004;49.120;-0.200;2023-08-17T12:01:32;9.10;;;5.40;;
35909;SDS011;22004;49.120;-0.200;2023-08-17T12:04:00;7.95;;;4.95;;
35909;SDS011;22004;49.120;-0.200;2023-08-17T12:06:25;8.15;;;4.80;;
35909;SDS011;22004;49.120;-0.200;2023-08-17T12:08:50;10.45;;;5.07;;
35909;SDS011;22004;49.120;-0.200;2023-08-17T12:11:17;10.10;;;5.20;;
35909;SDS011;22004;49.120;-0.200;2023-08-17T12:13:51;9.57;;;5.20;;
35909;SDS011;22004;49.120;-0.200;2023-08-17T12:16:20;7.07;;;4.70;;
35909;SDS011;22004;49.120;-0.200;2023-08-17T12:18:47;9.63;;;4.88;;
35909;SDS011;22004;49.120;-0.200;2023-08-17T12:21:14;11.15;;;5.75;;
35909;SDS011;22004;49.120;-0.200;2023-08-17T12:23:39;8.68;;;5.07;;
35909;SDS011;22004;49.120;-0.200;2023-08-17T12:26:05;9.55;;;5.43;;
35909;SDS011;22004;49.120;-0.200;2023-08-17T12:28:31;8.95;;;5.00;;
35909;SDS011;22004;49.120;-0.200;2023-08-17T12:30:58;13.57;;;4.88;;
35909;SDS011;22004;49.120;-0.200;2023-08-17T12:33:24;8.10;;;4.90;;
35909;SDS011;22004;49.120;-0.200;2023-08-17T12:35:50;7.07;;;4.63;;
35909;SDS011;22004;49.120;-0.200;2023-08-17T12:38:15;10.02;;;4.43;;
35909;SDS011;22004;49.120;-0.200;2023-08-17T12:40:42;9.25;;;4.85;;
35909;SDS011;22004;49.120;-0.200;2023-08-17T12:43:07;13.30;;;5.15;;
35909;SDS011;22004;49.120;-0.200;2023-08-17T12:45:32;8.82;;;4.85;;
35909;SDS011;22004;49.120;-0.200;2023-08-17T12:47:59;11.82;;;5.25;;
35909;SDS011;22004;49.120;-0.200;2023-08-17T12:50:25;9.07;;;5.38;;
35909;SDS011;22004;49.120;-0.200;2023-08-17T12:52:50;10.38;;;5.30;;
35909;SDS011;22004;49.120;-0.200;2023-08-17T12:55:15;10.70;;;5.30;;
35909;SDS011;22004;49.120;-0.200;2023-08-17T12:57:41;7.32;;;4.78;;
35909;SDS011;22004;49.120;-0.200;2023-08-17T13:00:06;13.95;;;5.35;;
35909;SDS011;22004;49.120;-0.200;2023-08-17T13:02:32;10.85;;;5.72;;
35909;SDS011;22004;49.120;-0.200;2023-08-17T13:04:57;7.22;;;5.80;;
35909;SDS011;22004;49.120;-0.200;2023-08-17T13:07:23;10.57;;;5.47;;
35909;SDS011;22004;49.120;-0.200;2023-08-17T13:09:48;11.07;;;5.32;;
35909;SDS011;22004;49.120;-0.200;2023-08-17T13:12:13;10.30;;;5.32;;
35909;SDS011;22004;49.120;-0.200;2023-08-17T13:14:39;7.82;;;5.00;;
35909;SDS011;22004;49.120;-0.200;2023-08-17T13:17:04;6.97;;;5.18;;
35909;SDS011;22004;49.120;-0.200;2023-08-17T13:19:29;9.35;;;5.35;;
35909;SDS011;22004;49.120;-0.200;2023-08-17T13:21:55;11.05;;;5.80;;
35909;SDS011;22004;49.120;-0.200;2023-08-17T13:24:20;9.25;;;5.00;;
35909;SDS011;22004;49.120;-0.200;2023-08-17T13:26:45;6.28;;;5.25;;
35909;SDS011;22004;49.120;-0.200;2023-08-17T13:29:11;7.45;;;4.82;;
35909;SDS011;22004;49.120;-0.200;2023-08-17T13:31:36;11.88;;;5.38;;
35909;SDS011;22004;49.120;-0.200;2023-08-17T13:34:01;7.95;;;4.63;;
35909;SDS011;22004;49.120;-0.200;2023-08-17T13:36:27;10.23;;;4.53;;
35909;SDS011;22004;49.120;-0.200;2023-08-17T13:38:53;13.98;;;4.75;;
35909;SDS011;22004;49.120;-0.200;2023-08-17T13:41:18;9.93;;;5.20;;
35909;SDS011;22004;49.120;-0.200;2023-08-17T13:43:44;10.38;;;5.00;;
35909;SDS011;22004;49.120;-0.200;2023-08-17T13:46:09;10.18;;;4.82;;
35909;SDS011;22004;49.120;-0.200;2023-08-17T13:48:34;6.47;;;4.13;;
35909;SDS011;22004;49.120;-0.200;2023-08-17T13:51:00;6.85;;;3.60;;
35909;SDS011;22004;49.120;-0.200;2023-08-17T13:53:25;7.68;;;3.83;;
35909;SDS011;22004;49.120;-0.200;2023-08-17T13:55:51;6.97;;;3.92;;
35909;SDS011;22004;49.120;-0.200;2023-08-17T13:58:16;8.65;;;3.70;;
35909;SDS011;22004;49.120;-0.200;2023-08-17T14:00:42;8.20;;;3.97;;
35909;SDS011;22004;49.120;-0.200;2023-08-17T14:03:07;7.50;;;3.97;;
35909;SDS011;22004;49.120;-0.200;2023-08-17T14:05:33;6.60;;;4.03;;
35909;SDS011;22004;49.120;-0.200;2023-08-17T14:07:58;6.13;;;3.65;;
35909;SDS011;22004;49.120;-0.200;2023-08-17T14:10:24;8.75;;;3.80;;
35909;SDS011;22004;49.120;-0.200;2023-08-17T14:12:50;11.00;;;4.28;;
35909;SDS011;22004;49.120;-0.200;2023-08-17T14:15:15;7.22;;;4.30;;
35909;SDS011;22004;49.120;-0.200;2023-08-17T14:17:40;4.35;;;3.40;;
35909;SDS011;22004;49.120;-0.200;2023-08-17T14:20:06;6.18;;;3.25;;
35909;SDS011;22004;49.120;-0.200;2023-08-17T14:22:31;6.00;;;4.05;;
35909;SDS011;22004;49.120;-0.200;2023-08-17T14:24:57;6.90;;;3.95;;
35909;SDS011;22004;49.120;-0.200;2023-08-17T14:27:22;9.23;;;4.40;;
35909;SDS011;22004;49.120;-0.200;2023-08-17T14:29:48;7.18;;;3.92;;
35909;SDS011;22004;49.120;-0.200;2023-08-17T14:32:13;9.10;;;3.72;;
35909;SDS011;22004;49.120;-0.200;2023-08-17T14:34:39;6.88;;;3.75;;
35909;SDS011;22004;49.120;-0.200;2023-08-17T14:37:04;6.65;;;4.00;;
35909;SDS011;22004;49.120;-0.200;2023-08-17T14:39:29;7.25;;;3.65;;
35909;SDS011;22004;49.120;-0.200;2023-08-17T14:41:55;9.02;;;3.80;;
35909;SDS011;22004;49.120;-0.200;2023-08-17T14:44:20;7.72;;;3.63;;